createdAt,value
2022-12-03T00:02:26.572Z,100.00
2022-12-03T00:04:53.573Z,100.00
2022-12-03T00:07:20.352Z,100.00
2022-12-03T00:09:46.970Z,100.00
2022-12-03T00:12:13.611Z,100.00
2022-12-03T00:14:44.577Z,100.00
2022-12-03T00:17:11.736Z,100.00
2022-12-03T00:19:38.391Z,100.00
2022-12-03T00:22:05.103Z,100.00
2022-12-03T00:24:31.957Z,100.00
2022-12-03T00:26:58.602Z,99.86
2022-12-03T00:29:25.224Z,100.00
2022-12-03T00:31:51.846Z,100.00
2022-12-03T00:34:18.546Z,100.00
2022-12-03T00:36:45.206Z,100.00
2022-12-03T00:39:11.800Z,99.80
2022-12-03T00:41:38.398Z,99.46
2022-12-03T00:44:05.300Z,99.03
2022-12-03T00:46:31.986Z,99.31
2022-12-03T00:48:58.637Z,99.48
2022-12-03T00:53:59.032Z,100.00
2022-12-03T00:56:25.683Z,100.00
2022-12-03T00:58:52.314Z,100.00
2022-12-03T01:01:19.070Z,100.00
2022-12-03T01:03:45.743Z,100.00
2022-12-03T01:06:12.457Z,100.00
2022-12-03T01:08:39.095Z,100.00
2022-12-03T01:11:25.925Z,100.00
2022-12-03T01:13:52.486Z,100.00
2022-12-03T01:16:19.157Z,100.00
2022-12-03T01:18:46.461Z,100.00
2022-12-03T01:21:13.119Z,100.00
2022-12-03T01:23:39.754Z,100.00
2022-12-03T01:26:06.351Z,100.00
2022-12-03T01:28:33.076Z,100.00
2022-12-03T01:31:18.269Z,100.00
2022-12-03T01:33:44.932Z,100.00
2022-12-03T01:36:11.599Z,100.00
2022-12-03T01:38:38.230Z,100.00
2022-12-03T01:41:10.102Z,100.00
2022-12-03T01:43:38.652Z,100.00
2022-12-03T01:46:05.616Z,100.00
2022-12-03T01:48:35.890Z,100.00
2022-12-03T01:51:02.627Z,100.00
2022-12-03T01:53:29.583Z,100.00
2022-12-03T01:55:56.452Z,100.00
2022-12-03T01:58:27.329Z,100.00
2022-12-03T02:00:54.010Z,100.00
2022-12-03T02:03:25.714Z,100.00
2022-12-03T02:05:53.449Z,100.00
2022-12-03T02:08:46.478Z,100.00
2022-12-03T02:11:15.892Z,98.44
2022-12-03T02:13:44.276Z,99.19
2022-12-03T02:16:11.155Z,98.75
2022-12-03T02:18:37.957Z,98.66
2022-12-03T02:21:23.386Z,99.67
2022-12-03T02:24:23.229Z,99.21
2022-12-03T02:26:49.925Z,99.84
2022-12-03T02:29:16.569Z,100.00
2022-12-03T02:31:44.008Z,100.00
2022-12-03T02:34:11.332Z,100.00
2022-12-03T02:36:39.108Z,100.00
2022-12-03T02:39:06.050Z,100.00
2022-12-03T02:41:51.562Z,100.00
2022-12-03T02:44:18.432Z,100.00
2022-12-03T02:46:45.118Z,100.00
2022-12-03T02:49:11.834Z,99.44
2022-12-03T02:51:38.582Z,98.56
2022-12-03T02:54:05.438Z,98.38
2022-12-03T02:56:32.826Z,98.77
2022-12-03T02:59:03.393Z,98.58
2022-12-03T03:01:30.235Z,98.74
2022-12-03T03:03:57.906Z,99.23
2022-12-03T03:06:24.880Z,98.73
2022-12-03T03:08:51.847Z,98.53
2022-12-03T03:11:18.773Z,99.38
2022-12-03T03:13:46.077Z,100.00
2022-12-03T03:16:12.998Z,100.00
2022-12-03T03:18:40.254Z,100.00
2022-12-03T03:21:07.362Z,100.00
2022-12-03T03:23:34.795Z,100.00
2022-12-03T03:26:03.974Z,100.00
2022-12-03T03:28:31.570Z,100.00
2022-12-03T03:31:00.814Z,100.00
2022-12-03T03:33:27.773Z,100.00
2022-12-03T03:35:54.595Z,100.00
2022-12-03T03:38:23.543Z,100.00
2022-12-03T03:40:51.558Z,100.00
2022-12-03T03:43:18.788Z,100.00
2022-12-03T03:45:45.545Z,100.00
2022-12-03T03:48:13.097Z,100.00
2022-12-03T03:53:19.794Z,100.00
2022-12-03T03:55:46.926Z,100.00
2022-12-03T03:58:13.855Z,99.28
2022-12-03T04:00:44.117Z,100.00
2022-12-03T04:03:11.879Z,100.00
2022-12-03T04:05:38.779Z,100.00
2022-12-03T04:08:05.550Z,100.00
2022-12-03T04:10:50.695Z,100.00
2022-12-03T04:13:17.326Z,100.00
2022-12-03T04:15:43.980Z,100.00
2022-12-03T04:18:29.189Z,100.00
2022-12-03T04:21:15.815Z,100.00
2022-12-03T04:23:42.517Z,100.00
2022-12-03T04:26:27.813Z,100.00
2022-12-03T04:28:54.614Z,100.00
2022-12-03T04:31:39.926Z,100.00
2022-12-03T04:34:25.436Z,100.00
2022-12-03T04:36:52.102Z,100.00
2022-12-03T04:39:18.918Z,100.00
2022-12-03T04:41:45.532Z,100.00
2022-12-03T04:44:30.676Z,99.97
2022-12-03T04:46:57.391Z,99.85
2022-12-03T04:49:24.080Z,99.40
2022-12-03T04:51:50.755Z,98.68
2022-12-03T04:54:17.432Z,99.12
2022-12-03T04:56:44.259Z,100.00
2022-12-03T04:59:15.805Z,100.00
2022-12-03T05:01:43.491Z,100.00
2022-12-03T05:04:10.508Z,100.00
2022-12-03T05:06:37.195Z,100.00
2022-12-03T05:09:04.122Z,100.00
2022-12-03T05:11:31.525Z,100.00
2022-12-03T05:13:58.086Z,100.00
2022-12-03T05:16:24.932Z,100.00
2022-12-03T05:18:51.751Z,100.00
2022-12-03T05:21:18.567Z,100.00
2022-12-03T05:23:45.244Z,100.00
2022-12-03T05:26:12.289Z,100.00
2022-12-03T05:28:38.918Z,100.00
2022-12-03T05:31:06.347Z,100.00
2022-12-03T05:33:33.382Z,100.00
2022-12-03T05:36:00.312Z,100.00
2022-12-03T05:38:26.950Z,100.00
2022-12-03T05:40:53.690Z,100.00
2022-12-03T05:43:20.371Z,100.00
2022-12-03T05:45:47.053Z,100.00
2022-12-03T05:48:15.991Z,100.00
2022-12-03T05:50:44.773Z,100.00
2022-12-03T05:53:12.790Z,100.00
2022-12-03T05:55:39.449Z,100.00
2022-12-03T05:58:06.553Z,100.00
2022-12-03T06:00:42.422Z,100.00
2022-12-03T06:03:09.388Z,100.00
2022-12-03T06:05:36.197Z,100.00
2022-12-03T06:08:02.975Z,100.00
2022-12-03T06:10:29.929Z,100.00
2022-12-03T06:12:56.830Z,100.00
2022-12-03T06:15:23.672Z,100.00
2022-12-03T06:17:50.421Z,100.00
2022-12-03T06:20:19.736Z,100.00
2022-12-03T06:22:47.653Z,100.00
2022-12-03T06:25:14.715Z,100.00
2022-12-03T06:27:41.250Z,100.00
2022-12-03T06:30:09.168Z,100.00
2022-12-03T06:32:35.913Z,100.00
2022-12-03T06:35:02.639Z,100.00
2022-12-03T06:37:29.280Z,100.00
2022-12-03T06:42:35.923Z,100.00
2022-12-03T06:45:03.162Z,100.00
2022-12-03T06:47:29.805Z,100.00
2022-12-03T06:49:56.431Z,100.00
2022-12-03T06:52:23.063Z,100.00
2022-12-03T06:54:49.680Z,100.00
2022-12-03T06:59:47.904Z,100.00
2022-12-03T07:02:14.580Z,100.00
2022-12-03T07:04:46.092Z,100.00
2022-12-03T07:07:13.720Z,100.00
2022-12-03T07:09:40.548Z,100.00
2022-12-03T07:12:07.182Z,100.00
2022-12-03T07:14:33.805Z,100.00
2022-12-03T07:17:00.382Z,100.00
2022-12-03T07:19:32.329Z,100.00
2022-12-03T07:21:59.372Z,100.00
2022-12-03T07:24:25.981Z,100.00
2022-12-03T07:26:52.609Z,100.00
2022-12-03T07:29:19.340Z,99.88
2022-12-03T07:31:46.007Z,98.18
2022-12-03T07:34:13.033Z,99.53
2022-12-03T07:36:39.735Z,96.08
2022-12-03T07:39:06.449Z,97.85
2022-12-03T07:41:33.250Z,97.56
2022-12-03T07:43:59.982Z,97.95
2022-12-03T07:46:26.850Z,97.25
2022-12-03T07:51:31.836Z,95.80
2022-12-03T07:53:58.917Z,96.54
2022-12-03T07:56:25.596Z,95.10
2022-12-03T07:58:52.292Z,95.04
2022-12-03T08:01:19.113Z,96.50
2022-12-03T08:03:45.897Z,95.60
2022-12-03T08:06:12.600Z,95.54
2022-12-03T08:08:39.697Z,96.60
2022-12-03T08:11:06.402Z,98.07
2022-12-03T08:13:34.534Z,95.16
2022-12-03T08:16:12.317Z,95.82
2022-12-03T08:23:51.270Z,97.80
2022-12-03T08:26:26.351Z,96.90
2022-12-03T08:28:53.975Z,95.03
2022-12-03T08:31:26.835Z,96.00
2022-12-03T08:34:21.049Z,95.91
2022-12-03T08:36:51.487Z,94.70
2022-12-03T08:39:28.042Z,94.84
2022-12-03T08:42:17.158Z,96.11
2022-12-03T08:44:44.060Z,98.14
2022-12-03T08:47:14.064Z,97.30
2022-12-03T08:49:41.054Z,96.24
2022-12-03T08:52:15.679Z,95.54
2022-12-03T08:54:43.886Z,96.71
2022-12-03T08:57:28.009Z,93.47
2022-12-03T09:00:00.067Z,93.70
2022-12-03T09:02:35.716Z,95.04
2022-12-03T09:05:18.851Z,94.72
2022-12-03T09:10:17.422Z,92.33
2022-12-03T09:12:44.041Z,93.64
2022-12-03T09:15:11.119Z,92.96
2022-12-03T09:17:37.794Z,92.26
2022-12-03T09:20:05.481Z,93.15
2022-12-03T09:22:32.430Z,94.32
2022-12-03T09:24:59.084Z,94.19
2022-12-03T09:27:25.861Z,92.62
2022-12-03T09:29:52.511Z,91.86
2022-12-03T09:32:19.266Z,90.33
2022-12-03T09:34:46.341Z,89.09
2022-12-03T09:39:46.270Z,89.84
2022-12-03T09:42:13.126Z,90.58
2022-12-03T09:44:39.743Z,90.44
2022-12-03T09:47:07.520Z,92.33
2022-12-03T09:49:36.828Z,91.82
2022-12-03T09:52:05.012Z,92.38
2022-12-03T09:54:32.729Z,90.02
2022-12-03T09:57:02.834Z,90.92
2022-12-03T09:59:34.856Z,90.34
2022-12-03T10:02:02.838Z,88.96
2022-12-03T10:04:30.155Z,87.84
2022-12-03T10:06:58.441Z,89.01
2022-12-03T10:09:28.212Z,89.15
2022-12-03T10:11:57.440Z,89.04
2022-12-03T10:14:24.335Z,88.12
2022-12-03T10:16:51.155Z,86.62
2022-12-03T10:19:27.768Z,88.56
2022-12-03T10:21:55.828Z,94.22
2022-12-03T10:24:31.706Z,87.08
2022-12-03T10:27:01.176Z,87.37
2022-12-03T10:29:34.542Z,86.45
2022-12-03T10:32:07.066Z,86.43
2022-12-03T10:34:39.206Z,86.68
2022-12-03T10:37:21.556Z,86.42
2022-12-03T10:39:57.225Z,87.42
2022-12-03T10:42:29.237Z,87.73
2022-12-03T10:45:13.579Z,88.76
2022-12-03T10:47:40.318Z,87.77
2022-12-03T10:50:19.647Z,88.62
2022-12-03T10:52:47.187Z,88.95
2022-12-03T10:55:14.974Z,88.08
2022-12-03T10:57:45.690Z,87.73
2022-12-03T11:00:17.546Z,89.26
2022-12-03T11:02:44.497Z,89.59
2022-12-03T11:05:17.120Z,86.93
2022-12-03T11:07:44.942Z,88.05
2022-12-03T11:10:16.892Z,87.63
2022-12-03T11:13:22.084Z,88.28
2022-12-03T11:15:49.017Z,86.94
2022-12-03T11:18:38.874Z,88.35
2022-12-03T11:21:12.912Z,87.31
2022-12-03T11:23:45.378Z,87.36
2022-12-03T11:26:18.842Z,87.40
2022-12-03T11:28:46.375Z,88.62
2022-12-03T11:31:45.329Z,96.79
2022-12-03T11:34:20.783Z,83.29
2022-12-03T11:37:11.957Z,84.07
2022-12-03T11:39:56.780Z,85.21
2022-12-03T11:42:26.344Z,85.40
2022-12-03T11:45:05.387Z,85.27
2022-12-03T11:47:45.702Z,86.69
2022-12-03T11:53:02.185Z,87.20
2022-12-03T11:55:33.275Z,87.24
2022-12-03T11:58:02.622Z,87.77
2022-12-03T12:00:29.415Z,87.20
2022-12-03T12:02:58.085Z,86.32
2022-12-03T12:05:33.535Z,86.36
2022-12-03T12:08:02.213Z,86.60
2022-12-03T12:10:47.658Z,87.25
2022-12-03T12:13:30.575Z,87.85
2022-12-03T12:16:05.321Z,87.00
2022-12-03T12:18:40.847Z,84.78
2022-12-03T12:21:38.273Z,87.25
2022-12-03T12:24:36.444Z,85.12
2022-12-03T12:27:07.257Z,85.79
2022-12-03T12:29:35.246Z,86.41
2022-12-03T12:32:29.554Z,87.20
2022-12-03T12:35:20.528Z,86.19
2022-12-03T12:38:00.162Z,86.23
2022-12-03T12:40:30.494Z,86.55
2022-12-03T12:43:11.566Z,87.96
2022-12-03T12:45:42.528Z,87.18
2022-12-03T12:48:15.085Z,87.34
2022-12-03T12:50:44.312Z,88.41
2022-12-03T12:53:11.041Z,88.90
2022-12-03T12:55:41.039Z,89.11
2022-12-03T12:58:19.877Z,87.65
2022-12-03T13:00:58.848Z,87.96
2022-12-03T13:03:29.298Z,87.90
2022-12-03T13:05:57.454Z,88.58
2022-12-03T13:08:24.121Z,88.19
2022-12-03T13:10:53.340Z,88.38
2022-12-03T13:13:30.480Z,89.44
2022-12-03T13:16:01.633Z,88.68
2022-12-03T13:18:33.914Z,88.72
2022-12-03T13:21:12.612Z,89.91
2022-12-03T13:23:39.658Z,88.67
2022-12-03T13:26:32.848Z,90.29
2022-12-03T13:29:06.406Z,89.57
2022-12-03T13:31:41.903Z,88.12
2022-12-03T13:34:25.256Z,87.42
2022-12-03T13:36:58.157Z,88.52
2022-12-03T13:39:32.727Z,87.09
2022-12-03T13:42:26.737Z,88.06
2022-12-03T13:44:53.580Z,87.03
2022-12-03T13:47:22.933Z,87.64
2022-12-03T13:49:54.298Z,88.51
2022-12-03T13:52:23.380Z,87.79
2022-12-03T13:54:53.718Z,87.22
2022-12-03T13:57:20.400Z,88.33
2022-12-03T14:02:21.587Z,88.08
2022-12-03T14:04:48.261Z,87.97
2022-12-03T14:07:14.902Z,88.73
2022-12-03T14:09:41.449Z,88.50
2022-12-03T14:12:26.168Z,88.35
2022-12-03T14:14:53.551Z,89.16
2022-12-03T14:17:20.482Z,88.96
2022-12-03T14:19:47.112Z,89.00
2022-12-03T14:22:13.706Z,88.71
2022-12-03T14:24:40.373Z,88.43
2022-12-03T14:27:07.052Z,88.98
2022-12-03T14:29:33.845Z,88.33
2022-12-03T14:34:31.828Z,87.86
2022-12-03T14:36:58.580Z,88.17
2022-12-03T14:39:25.316Z,89.08
2022-12-03T14:42:10.488Z,88.82
2022-12-03T14:44:37.221Z,88.35
2022-12-03T14:47:04.236Z,87.98
2022-12-03T14:49:30.938Z,87.63
2022-12-03T14:51:57.826Z,88.69
2022-12-03T14:54:24.586Z,88.18
2022-12-03T14:56:51.478Z,88.60
2022-12-03T14:59:20.705Z,88.67
2022-12-03T15:01:51.408Z,88.80
2022-12-03T15:04:18.500Z,88.60
2022-12-03T15:06:45.219Z,87.82
2022-12-03T15:09:11.967Z,87.40
2022-12-03T15:11:43.009Z,87.09
2022-12-03T15:14:12.694Z,88.42
2022-12-03T15:16:39.342Z,88.54
2022-12-03T15:19:06.025Z,88.63
2022-12-03T15:21:35.318Z,88.57
2022-12-03T15:24:02.650Z,93.45
2022-12-03T15:26:30.075Z,88.10
2022-12-03T15:28:56.799Z,87.36
2022-12-03T15:31:23.640Z,86.49
2022-12-03T15:33:50.462Z,87.00
2022-12-03T15:36:17.317Z,88.46
2022-12-03T15:38:43.996Z,87.96
2022-12-03T15:41:24.821Z,87.94
2022-12-03T15:43:52.706Z,88.71
2022-12-03T15:46:20.262Z,87.54
2022-12-03T15:48:47.358Z,86.48
2022-12-03T15:51:14.059Z,86.51
2022-12-03T15:53:40.742Z,86.96
2022-12-03T15:56:08.563Z,86.13
2022-12-03T15:58:35.249Z,86.19
2022-12-03T16:01:01.984Z,86.02
2022-12-03T16:03:28.668Z,87.84
2022-12-03T16:05:55.537Z,87.52
2022-12-03T16:08:22.367Z,86.77
2022-12-03T16:10:49.332Z,87.13
2022-12-03T16:13:15.967Z,87.17
2022-12-03T16:15:42.768Z,87.12
2022-12-03T16:18:09.435Z,86.46
2022-12-03T16:23:15.936Z,87.02
2022-12-03T16:25:42.535Z,87.72
2022-12-03T16:28:09.136Z,87.20
2022-12-03T16:30:36.347Z,89.73
2022-12-03T16:33:03.118Z,86.36
2022-12-03T16:35:29.852Z,86.73
2022-12-03T16:37:56.544Z,86.24
2022-12-03T16:42:54.501Z,87.43
2022-12-03T16:45:27.332Z,87.54
2022-12-03T16:47:53.994Z,87.64
2022-12-03T16:50:27.598Z,87.48
2022-12-03T16:52:56.430Z,86.74
2022-12-03T16:55:23.160Z,86.82
2022-12-03T16:57:49.823Z,86.94
2022-12-03T17:00:17.118Z,88.07
2022-12-03T17:02:43.887Z,87.76
2022-12-03T17:05:10.556Z,87.79
2022-12-03T17:07:37.331Z,88.06
2022-12-03T17:10:04.726Z,87.84
2022-12-03T17:12:54.078Z,87.93
2022-12-03T17:17:49.865Z,88.27
2022-12-03T17:20:18.012Z,87.81
2022-12-03T17:22:44.747Z,88.10
2022-12-03T17:25:12.079Z,87.68
2022-12-03T17:27:44.878Z,88.25
2022-12-03T17:30:12.316Z,88.67
2022-12-03T17:32:38.924Z,88.17
2022-12-03T17:35:05.958Z,88.30
2022-12-03T17:37:32.623Z,88.53
2022-12-03T17:39:59.446Z,88.91
2022-12-03T17:42:26.612Z,88.53
2022-12-03T17:44:53.261Z,89.03
2022-12-03T17:47:19.918Z,88.96
2022-12-03T17:49:46.588Z,88.54
2022-12-03T17:52:13.299Z,89.47
2022-12-03T17:55:08.329Z,89.31
2022-12-03T17:57:26.585Z,88.68
2022-12-03T17:59:53.566Z,88.02
2022-12-03T18:02:20.458Z,89.04
2022-12-03T18:04:47.107Z,88.47
2022-12-03T18:07:13.755Z,88.80
2022-12-03T18:09:40.321Z,88.65
2022-12-03T18:12:07.098Z,89.02
2022-12-03T18:14:33.796Z,87.84
2022-12-03T18:17:00.436Z,88.47
2022-12-03T18:19:27.021Z,88.00
2022-12-03T18:21:54.340Z,88.47
2022-12-03T18:24:21.449Z,88.95
2022-12-03T18:26:48.253Z,88.66
2022-12-03T18:29:14.898Z,89.59
2022-12-03T18:34:18.711Z,89.37
2022-12-03T18:36:45.925Z,89.82
2022-12-03T18:39:23.568Z,90.29
2022-12-03T18:41:50.265Z,89.33
2022-12-03T18:44:17.058Z,89.51
2022-12-03T18:46:59.218Z,89.20
2022-12-03T18:49:25.960Z,88.65
2022-12-03T18:51:59.038Z,89.28
2022-12-03T18:54:26.328Z,88.53
2022-12-03T18:56:52.930Z,89.04
2022-12-03T18:59:19.607Z,88.80
2022-12-03T19:01:46.288Z,88.30
2022-12-03T19:04:12.977Z,88.88
2022-12-03T19:06:40.498Z,88.90
2022-12-03T19:09:07.371Z,88.82
2022-12-03T19:11:34.246Z,89.35
2022-12-03T19:14:03.049Z,89.55
2022-12-03T19:16:29.911Z,89.50
2022-12-03T19:18:56.707Z,89.09
2022-12-03T19:21:23.497Z,89.23
2022-12-03T19:24:21.965Z,89.27
2022-12-03T19:26:36.760Z,88.89
2022-12-03T19:29:03.594Z,88.21
2022-12-03T19:31:33.403Z,88.54
2022-12-03T19:34:00.520Z,89.06
2022-12-03T19:36:29.977Z,100.00
2022-12-03T19:38:58.621Z,86.16
2022-12-03T19:41:27.500Z,87.67
2022-12-03T19:43:56.915Z,87.05
2022-12-03T19:46:25.482Z,87.30
2022-12-03T19:48:53.939Z,87.88
2022-12-03T19:51:34.153Z,89.00
2022-12-03T19:54:02.677Z,88.64
2022-12-03T19:56:30.571Z,89.28
2022-12-03T19:58:57.744Z,89.62
2022-12-03T20:01:28.350Z,89.18
2022-12-03T20:03:56.852Z,88.89
2022-12-03T20:06:27.115Z,89.36
2022-12-03T20:08:58.720Z,89.64
2022-12-03T20:11:28.665Z,89.04
2022-12-03T20:13:57.101Z,89.24
2022-12-03T20:16:25.376Z,89.37
2022-12-03T20:18:56.721Z,89.24
2022-12-03T20:21:23.849Z,89.33
2022-12-03T20:23:50.752Z,89.26
2022-12-03T20:26:19.888Z,89.16
2022-12-03T20:28:48.220Z,88.63
2022-12-03T20:31:17.571Z,89.56
2022-12-03T20:33:46.319Z,89.71
2022-12-03T20:36:15.732Z,89.67
2022-12-03T20:38:43.153Z,90.17
2022-12-03T20:41:18.761Z,89.83
2022-12-03T20:43:45.846Z,89.71
2022-12-03T20:46:20.793Z,89.16
2022-12-03T20:48:47.770Z,89.95
2022-12-03T20:51:19.639Z,90.14
2022-12-03T20:53:46.984Z,89.22
2022-12-03T20:56:42.296Z,89.19
2022-12-03T20:59:12.649Z,89.50
2022-12-03T21:01:40.479Z,89.65
2022-12-03T21:04:08.036Z,88.99
2022-12-03T21:06:37.045Z,88.75
2022-12-03T21:09:07.513Z,88.86
2022-12-03T21:11:36.098Z,88.17
2022-12-03T21:14:04.246Z,88.89
2022-12-03T21:17:05.885Z,88.18
2022-12-03T21:19:23.096Z,87.91
2022-12-03T21:21:49.986Z,88.24
2022-12-03T21:24:16.770Z,89.35
2022-12-03T21:26:43.394Z,89.59
2022-12-03T21:29:10.092Z,89.12
2022-12-03T21:31:38.456Z,89.38
2022-12-03T21:34:05.272Z,89.01
2022-12-03T21:36:32.198Z,89.40
2022-12-03T21:38:58.845Z,89.31
2022-12-03T21:41:25.565Z,90.75
2022-12-03T21:43:52.591Z,90.11
2022-12-03T21:47:11.157Z,89.33
2022-12-03T21:49:05.898Z,89.34
2022-12-03T21:51:32.519Z,88.95
2022-12-03T21:53:59.148Z,87.85
2022-12-03T21:56:25.891Z,87.68
2022-12-03T21:58:52.591Z,88.21
2022-12-03T22:01:24.270Z,88.56
2022-12-03T22:03:51.310Z,88.10
2022-12-03T22:06:18.828Z,88.56
2022-12-03T22:08:45.872Z,88.43
2022-12-03T22:11:18.045Z,88.83
2022-12-03T22:13:45.132Z,88.14
2022-12-03T22:16:15.238Z,88.55
2022-12-03T22:18:42.946Z,89.42
2022-12-03T22:23:44.018Z,88.22
2022-12-03T22:26:16.495Z,88.04
2022-12-03T22:28:45.504Z,88.96
2022-12-03T22:33:49.786Z,88.12
2022-12-03T22:36:21.106Z,88.59
2022-12-03T22:38:49.396Z,87.34
2022-12-03T22:41:16.386Z,86.51
2022-12-03T22:43:43.325Z,86.28
2022-12-03T22:46:12.828Z,86.48
2022-12-03T22:48:42.050Z,86.33
2022-12-03T22:51:17.404Z,87.24
2022-12-03T22:53:44.106Z,86.13
2022-12-03T22:56:11.000Z,86.24
2022-12-03T22:58:38.884Z,86.74
2022-12-03T23:01:05.990Z,86.93
2022-12-03T23:03:32.707Z,87.39
2022-12-03T23:05:59.343Z,86.98
2022-12-03T23:08:26.060Z,86.46
2022-12-03T23:10:53.442Z,86.14
2022-12-03T23:13:20.720Z,86.96
2022-12-03T23:15:49.352Z,86.82
2022-12-03T23:18:16.999Z,86.80
2022-12-03T23:20:45.751Z,86.31
2022-12-03T23:23:13.091Z,86.45
2022-12-03T23:25:39.893Z,86.50
2022-12-03T23:28:07.372Z,86.56
2022-12-03T23:30:38.892Z,87.09
2022-12-03T23:33:06.495Z,86.69
2022-12-03T23:35:33.644Z,87.23
2022-12-03T23:38:00.335Z,87.13
2022-12-03T23:40:27.058Z,87.39
2022-12-03T23:42:53.767Z,87.56
2022-12-03T23:45:20.408Z,89.13
2022-12-03T23:47:47.079Z,89.25
2022-12-03T23:50:14.580Z,89.18
2022-12-03T23:52:41.352Z,89.51
2022-12-03T23:55:08.348Z,86.25
2022-12-03T23:57:35.438Z,87.08
